• Join FlightAware (Why Join?)
  • Login
  • US Flag 
07:39PM EDT


 

Airport Tracker/Info


-or-


 

Live Flight TrackerFlight Track Log ✈ PDT4226 ✈ 26-Jan-2014 ✈ KPHL - KBGM

Flight Track Log - Related Links

Times and Time Zones

All times are in EST time to prevent confusion due to time zone crossing. See the PDT4226 flight status page for this flight to view local times or setup timezone preferences in your user account.

Time Position Orientation Groundspeed Altitude Reporting Facility
EST Latitude Longitude Course Direction KTS MPH feet Rate Location/Type
12:05PM 39.9000 -75.2333 303° West 126 145 500  Level Philadelphia TRACON
12:06PM 39.9167 -75.2833 294° West 126 145 2,200 1,560 Climbing Philadelphia TRACON
12:07PM 39.9333 -75.3167 303° West 126 145 3,900 1,560 Climbing Philadelphia TRACON
12:08PM 40.0097 -75.3597 323° Northwest  Level FlightAware Approximate
12:08PM 39.9500 -75.3667 294° West 127 146 5,600  Level Philadelphia TRACON
12:09PM 40.0566 -75.4066 323° Northwest  Level FlightAware Approximate
12:09PM 39.9833 -75.3833 339° North 155 178 6,700  Level Philadelphia TRACON
12:10PM 40.1059 -75.4451 303° West  Level FlightAware Approximate
12:10PM 40.0333 -75.4000 346° North 156 180 7,900  Level Philadelphia TRACON
12:11PM 40.0667 -75.4333 323° Northwest 157 181 9,300 1,140 Climbing Philadelphia TRACON
12:12PM 40.1075 -75.4714 325° Northwest 173 199 10,600 1,140 Climbing New York Center
12:13PM 40.1542 -75.4992 336° Northwest 181 208 11,800 660 Climbing New York Center
12:14PM 40.2050 -75.5297 335° Northwest 184 212 12,000 60 Climbing New York Center
12:15PM 40.2597 -75.5689 331° Northwest 200 230 12,000  Level New York Center
12:16PM 40.3083 -75.6022 332° Northwest 219 252 12,000  Level New York Center
12:17PM 40.3653 -75.6389 334° Northwest 224 258 12,000  Level New York Center
12:18PM 40.4239 -75.6811 331° Northwest 224 258 12,000  Level New York Center
12:19PM 40.4850 -75.7156 337° Northwest 224 258 12,000  Level New York Center
12:20PM 40.5439 -75.7525 335° Northwest 224 258 12,000  Level New York Center
12:21PM 40.5947 -75.7864 333° Northwest 229 264 12,000  Level New York Center
12:22PM 40.6536 -75.8206 336° Northwest 229 264 12,000  Level New York Center
12:23PM 40.7122 -75.8633 331° Northwest 229 264 12,000  Level New York Center
12:24PM 40.7644 -75.9056 329° Northwest 224 258 12,000  Level New York Center
12:25PM 40.8194 -75.9372 336° Northwest 224 258 12,000  Level New York Center
12:26PM 40.8833 -75.9531 349° North 231 266 12,000  Level New York Center
12:27PM 40.9544 -75.9475 North 237 273 12,000  Level New York Center
12:28PM 41.0231 -75.9525 357° North 247 284 12,000  Level New York Center
12:29PM 41.0978 -75.9583 357° North 247 284 12,000  Level New York Center
12:30PM 41.1686 -75.9556 North 253 291 12,100  Climbing New York Center
12:31PM 41.2372 -75.9581 358° North 253 291 12,100  Level New York Center
12:32PM 41.3058 -75.9633 357° North 253 291 12,100  Level New York Center
12:33PM 41.3744 -75.9658 358° North 253 291 12,100  Level New York Center
12:34PM 41.4456 -75.9603 North 253 291 12,100 -420 Level New York Center
12:35PM 41.5181 -75.9658 357° North 253 291 11,300 -900 Descending New York Center
12:36PM 41.5972 -75.9664 360° North 267 307 10,300 -1,020 Descending New York Center
12:37PM 41.6658 -75.9717 357° North 273 314 9,300 -600 Descending New York Center
12:38PM 41.7361 -75.9800 355° North 268 308 9,100 -300 Descending New York Center
12:39PM 41.8114 -75.9775 North 251 289 8,800 -720 Descending New York Center
12:40PM 41.8842 -75.9750 North 256 295 7,700 -1,080 Descending New York Center
12:41PM 41.9525 -75.9831 355° North 250 288 6,700 -1,020 Descending New York Center
12:42PM 42.0106 -75.9906 355° North 245 282 5,700 -1,080 Descending New York Center
12:43PM 42.0792 -75.9903 360° North 239 275 4,600 -1,080 Descending New York Center
12:44PM 42.1308 -76.0000 352° North 216 249 3,600 -660 Descending New York Center
12:45PM 42.1653 -75.9747 29° Northeast 161 185 3,300 -540 Descending New York Center
12:46PM 42.1756 -75.9308 72° East 120 138 2,600 -600 Descending New York Center
12:47PM 42.2061 -75.9444 342° North 100 115 2,100 -540 Descending New York Center